Time;durP1;ratioP1;P1;durP2;ratioP2;P2;SDS_P1;SDS_P2;PMS_P1;PMS_P2;Temp;Humidity;BMP_temperature;BMP_pressure;BME280_temperature;BME280_humidity;BME280_pressure;Samples;Min_cycle;Max_cycle;Signal;HPM_P1;HPM_P2
2022/03/11 00:02:04;;;;;;;16.70;9.85;;;8.10;95.30;;;;;;5033376;28;20040;-80
2022/03/11 00:04:30;;;;;;;14.32;10.02;;;8.10;95.60;;;;;;5034098;28;20053;-79
2022/03/11 00:06:56;;;;;;;12.23;8.88;;;8.10;95.70;;;;;;5048332;28;20063;-81
2022/03/11 00:09:22;;;;;;;17.73;9.50;;;8.10;95.60;;;;;;5040462;28;20344;-80
2022/03/11 00:11:48;;;;;;;17.05;9.52;;;8.00;95.80;;;;;;5041482;28;20373;-81
2022/03/11 00:14:13;;;;;;;12.45;9.13;;;8.00;94.50;;;;;;5043229;28;20425;-79
2022/03/11 00:16:39;;;;;;;16.27;9.20;;;7.90;95.30;;;;;;5037309;28;20370;-81
2022/03/11 00:19:04;;;;;;;14.27;8.90;;;7.90;95.30;;;;;;5026469;28;20116;-80
2022/03/11 00:21:30;;;;;;;18.27;10.45;;;7.80;95.50;;;;;;5041641;28;20076;-80
2022/03/11 00:23:55;;;;;;;17.45;10.25;;;7.80;95.30;;;;;;5025288;28;20032;-80
2022/03/11 00:26:21;;;;;;;14.85;9.85;;;7.80;95.70;;;;;;5040743;28;20021;-80
2022/03/11 00:28:47;;;;;;;17.05;10.25;;;7.80;95.60;;;;;;5032993;28;20025;-81
2022/03/11 00:31:12;;;;;;;15.75;9.13;;;7.70;94.90;;;;;;5021137;28;20104;-80
2022/03/11 00:33:38;;;;;;;17.98;9.43;;;7.70;95.10;;;;;;5029610;28;20116;-80
2022/03/11 00:36:04;;;;;;;16.85;10.40;;;7.70;95.70;;;;;;5037566;28;20420;-80
2022/03/11 00:38:29;;;;;;;13.60;9.43;;;7.70;96.20;;;;;;5031062;28;20046;-80
2022/03/11 00:40:58;;;;;;;15.55;9.40;;;7.60;96.50;;;;;;5027346;28;20080;-80
2022/03/11 00:43:23;;;;;;;17.83;9.77;;;7.60;96.20;;;;;;5034660;28;20527;-79
2022/03/11 00:45:49;;;;;;;16.23;10.02;;;7.50;95.80;;;;;;5031268;28;20033;-81
2022/03/11 00:48:16;;;;;;;13.85;9.50;;;7.60;96.10;;;;;;5038203;28;20116;-80
2022/03/11 00:50:43;;;;;;;17.85;10.30;;;7.50;95.70;;;;;;5035746;28;20030;-80
2022/03/11 00:53:09;;;;;;;15.77;10.05;;;7.50;95.60;;;;;;5052249;28;20354;-80
2022/03/11 00:55:34;;;;;;;22.85;10.13;;;7.40;96.10;;;;;;5029134;28;20040;-80
2022/03/11 00:58:00;;;;;;;20.42;8.93;;;7.40;95.20;;;;;;5030807;28;20055;-80
2022/03/11 01:00:25;;;;;;;18.02;10.43;;;7.40;95.00;;;;;;5043899;28;20090;-80
2022/03/11 01:02:52;;;;;;;16.48;9.48;;;7.40;95.40;;;;;;5040542;28;20030;-80
2022/03/11 01:05:18;;;;;;;15.25;8.95;;;7.30;95.30;;;;;;5040148;28;20068;-81
2022/03/11 01:07:43;;;;;;;15.07;9.35;;;7.30;95.80;;;;;;5022788;28;20053;-79
2022/03/11 01:10:09;;;;;;;16.40;9.43;;;7.30;96.10;;;;;;5036892;28;20025;-80
2022/03/11 01:12:37;;;;;;;14.23;9.13;;;7.20;94.80;;;;;;5032441;28;20092;-81
2022/03/11 01:15:03;;;;;;;16.20;9.95;;;7.30;95.10;;;;;;5035280;28;20017;-80
2022/03/11 01:17:29;;;;;;;15.20;9.15;;;7.30;95.60;;;;;;5043445;28;20476;-80
2022/03/11 01:19:54;;;;;;;16.80;9.10;;;7.20;95.30;;;;;;5037420;28;20025;-79
2022/03/11 01:22:20;;;;;;;16.58;9.88;;;7.30;95.40;;;;;;5034012;28;20044;-80
2022/03/11 01:24:46;;;;;;;18.40;9.60;;;7.30;94.70;;;;;;5030733;28;20182;-80
2022/03/11 01:27:12;;;;;;;16.42;9.18;;;7.20;94.90;;;;;;5028157;28;20040;-81
2022/03/11 01:29:37;;;;;;;13.90;8.85;;;7.30;95.40;;;;;;5032030;28;20022;-81
2022/03/11 01:32:03;;;;;;;16.00;10.55;;;7.20;95.20;;;;;;5036809;28;20026;-81
2022/03/11 01:34:29;;;;;;;22.95;11.63;;;7.20;95.30;;;;;;5044421;28;20465;-81
2022/03/11 01:36:55;;;;;;;15.85;9.52;;;7.20;95.00;;;;;;5039988;28;20033;-81
2022/03/11 01:39:20;;;;;;;18.48;10.18;;;7.20;95.60;;;;;;5033521;28;20029;-81
2022/03/11 01:41:46;;;;;;;19.65;10.45;;;7.10;94.80;;;;;;5041252;28;20047;-81
2022/03/11 01:44:12;;;;;;;19.80;9.80;;;7.10;95.10;;;;;;5040239;28;20057;-80
2022/03/11 01:46:38;;;;;;;15.95;10.50;;;7.10;95.40;;;;;;5029230;28;20039;-80
2022/03/11 01:49:06;;;;;;;20.23;9.80;;;7.20;95.10;;;;;;5040551;28;20036;-81
2022/03/11 01:51:37;;;;;;;22.05;10.10;;;7.20;95.30;;;;;;5050703;28;20051;-80
2022/03/11 01:54:02;;;;;;;19.23;10.38;;;7.10;94.90;;;;;;5028298;28;20025;-81
2022/03/11 01:56:28;;;;;;;16.17;9.70;;;7.20;95.30;;;;;;5042712;28;20078;-81
2022/03/11 01:58:55;;;;;;;19.92;11.05;;;7.10;95.60;;;;;;5024571;28;20378;-80
2022/03/11 02:01:22;;;;;;;16.95;10.65;;;7.20;95.10;;;;;;5037380;28;20374;-80
2022/03/11 02:03:49;;;;;;;18.08;10.20;;;7.10;95.00;;;;;;5043112;28;20029;-81
2022/03/11 02:06:15;;;;;;;20.08;11.27;;;7.10;94.30;;;;;;5033791;28;20468;-81
2022/03/11 02:08:42;;;;;;;18.02;10.82;;;7.20;94.40;;;;;;5033377;28;20048;-80
2022/03/11 02:11:09;;;;;;;20.00;10.50;;;7.20;95.00;;;;;;5038563;28;20100;-80
2022/03/11 02:14:01;;;;;;;19.35;11.25;;;7.20;94.60;;;;;;5040627;28;20033;-80
2022/03/11 02:16:32;;;;;;;16.70;10.30;;;7.20;94.50;;;;;;5032618;28;20047;-80
2022/03/11 02:18:59;;;;;;;20.88;11.43;;;7.10;94.90;;;;;;5022592;28;20071;-80
2022/03/11 02:21:27;;;;;;;19.38;11.60;;;7.10;94.60;;;;;;5030209;28;20458;-80
2022/03/11 02:24:01;;;;;;;21.83;11.73;;;7.10;94.80;;;;;;5025909;28;20442;-80
2022/03/11 02:26:29;;;;;;;18.40;12.10;;;7.00;95.10;;;;;;5035651;28;20473;-80
2022/03/11 02:28:58;;;;;;;18.42;11.23;;;7.00;94.50;;;;;;5023697;28;20022;-79
2022/03/11 02:31:26;;;;;;;17.20;10.77;;;7.00;94.80;;;;;;5026026;28;20052;-80
2022/03/11 02:33:52;;;;;;;19.13;10.40;;;7.10;94.70;;;;;;5043705;28;20318;-80
2022/03/11 02:36:20;;;;;;;18.75;11.43;;;7.10;94.90;;;;;;5045431;28;20476;-80
2022/03/11 02:38:46;;;;;;;21.25;11.23;;;7.00;94.30;;;;;;5030698;28;20033;-81
2022/03/11 02:41:12;;;;;;;17.92;10.52;;;7.10;94.40;;;;;;5038831;28;20044;-80
2022/03/11 02:43:38;;;;;;;17.55;10.95;;;6.90;94.60;;;;;;5037574;28;20029;-80
2022/03/11 02:46:04;;;;;;;17.85;10.60;;;6.90;94.50;;;;;;5045291;28;20055;-80
2022/03/11 02:48:30;;;;;;;17.55;10.00;;;6.90;94.80;;;;;;5044564;28;20033;-80
2022/03/11 02:50:55;;;;;;;18.58;11.13;;;6.90;94.60;;;;;;5039575;28;20445;-80
2022/03/11 02:53:22;;;;;;;18.13;10.80;;;6.90;94.80;;;;;;5029574;28;20504;-80
2022/03/11 02:55:48;;;;;;;18.08;10.98;;;6.90;94.80;;;;;;5042085;28;20384;-80
2022/03/11 02:58:13;;;;;;;17.50;10.98;;;6.90;94.50;;;;;;5050269;28;20108;-79
2022/03/11 03:00:39;;;;;;;17.25;10.77;;;6.90;94.40;;;;;;5040694;28;20064;-81
2022/03/11 03:03:05;;;;;;;22.02;11.05;;;6.90;94.60;;;;;;5043611;28;20039;-81
2022/03/11 03:05:30;;;;;;;17.55;11.05;;;6.90;94.40;;;;;;5042576;28;20539;-80
2022/03/11 03:07:56;;;;;;;18.15;10.93;;;6.90;94.60;;;;;;5048357;28;20363;-80
2022/03/11 03:10:22;;;;;;;16.67;10.23;;;6.90;94.60;;;;;;5050334;28;20027;-80
2022/03/11 03:12:48;;;;;;;15.52;10.07;;;6.90;94.90;;;;;;5042376;28;20029;-80
2022/03/11 03:15:13;;;;;;;20.42;11.90;;;6.80;94.60;;;;;;5033569;28;20397;-80
2022/03/11 03:17:39;;;;;;;16.92;10.55;;;6.80;94.70;;;;;;5045433;28;20021;-80
2022/03/11 03:20:07;;;;;;;16.75;11.20;;;6.80;94.50;;;;;;5043245;28;20129;-79
2022/03/11 03:22:33;;;;;;;18.27;11.13;;;6.90;94.50;;;;;;5028579;28;20028;-80
2022/03/11 03:24:59;;;;;;;21.15;10.27;;;6.90;94.40;;;;;;5041314;28;20438;-80
2022/03/11 03:27:25;;;;;;;17.23;10.32;;;6.80;94.80;;;;;;5051055;28;20071;-80
2022/03/11 03:29:51;;;;;;;15.18;10.15;;;6.70;94.40;;;;;;5033833;28;20025;-80
2022/03/11 03:32:16;;;;;;;16.20;10.10;;;6.80;94.70;;;;;;5020167;28;20018;-80
2022/03/11 03:34:42;;;;;;;18.92;9.90;;;6.80;94.40;;;;;;5033129;28;20029;-80
2022/03/11 03:37:10;;;;;;;15.85;10.80;;;6.80;94.60;;;;;;5034528;28;20101;-80
2022/03/11 03:39:37;;;;;;;16.73;9.65;;;6.70;94.60;;;;;;5030983;28;20573;-80
2022/03/11 03:42:04;;;;;;;14.50;9.60;;;6.80;94.50;;;;;;5036319;28;20490;-80
2022/03/11 03:44:29;;;;;;;16.45;10.55;;;6.80;94.40;;;;;;5044615;28;20458;-80
2022/03/11 03:46:55;;;;;;;17.20;9.93;;;6.80;94.30;;;;;;5035336;28;20041;-80
2022/03/11 03:49:21;;;;;;;16.20;9.70;;;6.80;94.70;;;;;;5031817;28;20033;-80
2022/03/11 03:51:47;;;;;;;22.98;10.43;;;6.70;94.70;;;;;;5039212;28;20033;-79
2022/03/11 03:54:13;;;;;;;16.58;9.48;;;6.70;94.50;;;;;;5025213;28;20036;-80
2022/03/11 03:56:41;;;;;;;20.48;10.30;;;6.80;94.20;;;;;;5039555;28;20031;-80
2022/03/11 03:59:07;;;;;;;15.40;9.75;;;6.80;94.40;;;;;;5042253;28;20025;-80
2022/03/11 04:01:38;;;;;;;14.70;9.38;;;6.70;94.40;;;;;;5033621;28;20088;-80
2022/03/11 04:04:04;;;;;;;16.90;8.90;;;6.70;94.30;;;;;;5036462;28;20040;-80
2022/03/11 04:06:34;;;;;;;14.90;8.95;;;6.70;94.40;;;;;;5040224;28;20036;-81
2022/03/11 04:09:00;;;;;;;15.75;9.85;;;6.70;94.40;;;;;;5041063;28;20032;-80
2022/03/11 04:11:27;;;;;;;18.05;9.57;;;6.70;94.10;;;;;;5043759;28;20026;-79
2022/03/11 04:13:53;;;;;;;17.60;9.90;;;6.60;94.50;;;;;;5027279;28;20029;-80
2022/03/11 04:16:20;;;;;;;14.27;9.35;;;6.60;94.40;;;;;;5039413;28;20021;-81
2022/03/11 04:18:46;;;;;;;16.05;9.75;;;6.60;94.90;;;;;;5033607;28;20179;-80
2022/03/11 04:21:13;;;;;;;14.65;8.63;;;6.60;94.70;;;;;;5027952;28;20447;-80
2022/03/11 04:23:39;;;;;;;15.43;9.00;;;6.60;94.60;;;;;;5040944;28;20366;-80
2022/03/11 04:26:05;;;;;;;15.30;9.15;;;6.60;94.80;;;;;;5043767;28;20053;-80
2022/03/11 04:28:31;;;;;;;17.00;9.30;;;6.50;94.60;;;;;;5041448;28;20084;-80
2022/03/11 04:30:56;;;;;;;15.20;9.05;;;6.50;94.80;;;;;;5026745;28;20013;-80
2022/03/11 04:33:22;;;;;;;15.18;8.73;;;6.50;94.80;;;;;;5038496;28;20080;-80
2022/03/11 04:35:48;;;;;;;17.15;9.57;;;6.50;94.70;;;;;;5026905;28;20033;-80
2022/03/11 04:38:14;;;;;;;14.43;9.45;;;6.50;94.30;;;;;;5038259;28;20381;-80
2022/03/11 04:40:40;;;;;;;15.65;9.65;;;6.60;94.50;;;;;;5024090;28;20076;-80
2022/03/11 04:43:05;;;;;;;16.23;9.05;;;6.50;94.60;;;;;;5036293;28;20465;-80
2022/03/11 04:45:31;;;;;;;17.23;9.60;;;6.50;94.60;;;;;;5042824;28;20368;-80
2022/03/11 04:47:57;;;;;;;17.23;9.30;;;6.50;94.30;;;;;;5038573;28;20077;-81
2022/03/11 04:50:22;;;;;;;14.05;9.00;;;6.50;94.40;;;;;;5036040;28;20101;-80
2022/03/11 04:52:48;;;;;;;16.25;10.23;;;6.50;94.60;;;;;;5030136;28;20033;-80
2022/03/11 04:55:16;;;;;;;13.43;9.30;;;6.50;94.90;;;;;;5038884;28;20083;-80
2022/03/11 04:57:42;;;;;;;12.25;8.82;;;6.50;94.70;;;;;;5047276;28;20030;-79
2022/03/11 05:00:09;;;;;;;14.80;8.82;;;6.50;94.60;;;;;;5026956;28;20505;-80
2022/03/11 05:02:35;;;;;;;13.75;9.52;;;6.50;94.20;;;;;;5039077;28;20035;-80
2022/03/11 05:05:05;;;;;;;13.75;9.05;;;6.50;94.30;;;;;;5033964;28;20474;-80
2022/03/11 05:07:31;;;;;;;13.38;8.85;;;6.50;94.10;;;;;;5028551;28;20017;-80
2022/03/11 05:09:57;;;;;;;12.35;8.02;;;6.50;94.30;;;;;;5034984;28;20066;-80
2022/03/11 05:12:22;;;;;;;16.83;10.32;;;6.50;94.30;;;;;;5030823;28;20389;-80
2022/03/11 05:14:52;;;;;;;16.77;9.10;;;6.50;93.90;;;;;;5039076;28;20033;-80
2022/03/11 05:17:18;;;;;;;15.50;9.65;;;6.50;94.40;;;;;;5040243;28;20024;-81
2022/03/11 05:19:44;;;;;;;12.45;8.15;;;6.60;94.20;;;;;;5031664;28;20065;-81
2022/03/11 05:22:11;;;;;;;15.55;9.50;;;6.50;94.20;;;;;;5029852;28;20457;-80
2022/03/11 05:24:37;;;;;;;15.00;9.25;;;6.50;94.40;;;;;;5046751;28;20025;-80
2022/03/11 05:27:03;;;;;;;13.55;8.38;;;6.40;94.30;;;;;;5048810;28;20025;-81
2022/03/11 05:29:34;;;;;;;12.88;8.73;;;6.40;94.30;;;;;;5025518;28;20057;-81
2022/03/11 05:32:00;;;;;;;14.70;9.55;;;6.40;94.20;;;;;;5053618;28;20347;-81
2022/03/11 05:34:25;;;;;;;13.82;8.95;;;6.50;94.30;;;;;;5035889;28;20030;-80
2022/03/11 05:36:51;;;;;;;14.55;8.55;;;6.40;94.50;;;;;;5031056;28;20018;-81
2022/03/11 05:39:17;;;;;;;13.50;8.85;;;6.50;94.50;;;;;;5035769;28;20025;-80
2022/03/11 05:41:44;;;;;;;13.93;9.05;;;6.40;94.40;;;;;;5026708;28;20043;-81
2022/03/11 05:44:10;;;;;;;12.98;8.90;;;6.40;94.60;;;;;;5032307;28;20071;-81
2022/03/11 05:46:36;;;;;;;13.07;8.50;;;6.50;94.70;;;;;;5049565;28;20037;-80
2022/03/11 05:49:01;;;;;;;17.27;8.50;;;6.50;94.60;;;;;;5035458;28;20056;-80
2022/03/11 05:51:27;;;;;;;14.02;7.88;;;6.50;94.30;;;;;;5024327;28;20021;-80
2022/03/11 05:53:52;;;;;;;14.20;8.23;;;6.40;94.60;;;;;;5038626;28;20032;-80
2022/03/11 05:56:18;;;;;;;15.80;8.40;;;6.40;94.60;;;;;;5025097;28;20482;-80
2022/03/11 05:58:44;;;;;;;12.85;8.80;;;6.40;94.60;;;;;;5034858;28;20064;-80
2022/03/11 06:01:10;;;;;;;17.25;9.25;;;6.40;94.50;;;;;;5039349;28;20029;-80
2022/03/11 06:03:35;;;;;;;14.77;8.48;;;6.40;94.50;;;;;;5034439;28;20029;-81
2022/03/11 06:06:01;;;;;;;17.67;8.73;;;6.40;94.40;;;;;;5039652;28;20424;-80
2022/03/11 06:08:26;;;;;;;15.38;9.15;;;6.40;94.60;;;;;;5043955;28;20025;-81
2022/03/11 06:10:52;;;;;;;14.57;8.63;;;6.40;94.60;;;;;;5040011;28;20099;-80
2022/03/11 06:13:18;;;;;;;11.98;8.07;;;6.40;94.50;;;;;;5035781;28;20079;-81
2022/03/11 06:15:43;;;;;;;16.52;9.00;;;6.40;94.50;;;;;;5028216;28;20021;-80
2022/03/11 06:18:12;;;;;;;12.43;7.82;;;6.40;94.60;;;;;;5035109;28;20536;-81
2022/03/11 06:20:38;;;;;;;12.90;8.15;;;6.50;95.60;;;;;;5037889;28;20025;-81
2022/03/11 06:23:04;;;;;;;15.90;8.65;;;6.30;94.80;;;;;;5037163;28;20033;-80
2022/03/11 06:25:30;;;;;;;11.10;7.40;;;6.40;94.80;;;;;;5041863;28;20112;-73
2022/03/11 06:27:55;;;;;;;14.38;8.20;;;6.40;95.60;;;;;;5046330;28;20527;-80
2022/03/11 06:30:21;;;;;;;14.10;7.85;;;6.50;94.90;;;;;;5042998;28;20044;-82
2022/03/11 06:32:49;;;;;;;16.35;9.00;;;6.40;95.00;;;;;;5041165;28;20460;-82
2022/03/11 06:35:15;;;;;;;14.85;8.30;;;6.50;95.00;;;;;;5035729;28;20062;-81
2022/03/11 06:37:43;;;;;;;14.82;8.57;;;6.50;96.10;;;;;;5039403;28;20028;-81
2022/03/11 06:40:09;;;;;;;18.48;9.52;;;6.40;95.20;;;;;;5041490;28;20024;-82
2022/03/11 06:42:37;;;;;;;12.75;8.98;;;6.40;95.10;;;;;;5039286;28;20719;-82
2022/03/11 06:45:04;;;;;;;13.95;8.60;;;6.50;96.00;;;;;;5031939;28;20021;-81
2022/03/11 06:47:29;;;;;;;16.00;8.65;;;6.50;95.30;;;;;;5034488;28;20021;-80
2022/03/11 06:49:55;;;;;;;18.35;9.45;;;6.50;95.10;;;;;;5037310;28;20030;-80
2022/03/11 06:52:21;;;;;;;17.92;9.38;;;6.50;95.10;;;;;;5037421;28;20030;-80
2022/03/11 06:54:46;;;;;;;16.48;8.73;;;6.50;95.10;;;;;;5038205;28;20361;-80
2022/03/11 06:57:12;;;;;;;17.02;8.80;;;6.60;95.30;;;;;;5038956;28;20025;-80
2022/03/11 06:59:38;;;;;;;13.88;8.82;;;6.60;95.70;;;;;;5032853;28;20018;-80
2022/03/11 07:02:05;;;;;;;16.30;8.68;;;6.60;95.50;;;;;;5034658;28;20033;-80
2022/03/11 07:04:30;;;;;;;15.52;8.93;;;6.70;95.20;;;;;;5032593;28;20525;-80
2022/03/11 07:06:56;;;;;;;15.77;9.10;;;6.70;95.50;;;;;;5038408;28;20014;-80
2022/03/11 07:09:21;;;;;;;14.18;9.35;;;6.70;95.40;;;;;;5033679;28;20129;-80
2022/03/11 07:11:48;;;;;;;15.43;8.88;;;6.80;95.20;;;;;;5035026;28;20021;-80
2022/03/11 07:14:14;;;;;;;18.27;9.18;;;6.90;95.40;;;;;;5033609;28;20578;-80
2022/03/11 07:16:39;;;;;;;17.98;8.32;;;6.90;95.20;;;;;;5031547;28;20026;-80
2022/03/11 07:19:05;;;;;;;20.27;9.38;;;6.90;95.30;;;;;;5034787;28;20029;-80
2022/03/11 07:21:30;;;;;;;13.63;8.25;;;7.00;95.10;;;;;;5036932;28;20474;-80
2022/03/11 07:23:56;;;;;;;15.98;8.38;;;7.00;95.10;;;;;;5049384;28;20021;-81
2022/03/11 07:26:22;;;;;;;18.08;9.50;;;7.10;95.30;;;;;;5051774;28;20027;-81
2022/03/11 07:28:48;;;;;;;15.68;9.85;;;7.20;95.00;;;;;;5024128;28;20665;-82
2022/03/11 07:31:14;;;;;;;17.52;8.68;;;7.20;95.60;;;;;;5035077;28;20051;-84
2022/03/11 07:33:39;;;;;;;15.88;9.43;;;7.20;95.00;;;;;;5042562;28;20508;-83
2022/03/11 07:36:05;;;;;;;17.55;9.60;;;7.30;95.60;;;;;;5043660;28;20444;-83
2022/03/11 07:38:31;;;;;;;16.20;9.38;;;7.30;94.80;;;;;;5047893;28;20434;-82
2022/03/11 07:40:58;;;;;;;21.92;9.20;;;7.50;95.30;;;;;;5034298;28;20053;-80
2022/03/11 07:43:25;;;;;;;17.02;9.85;;;7.50;95.40;;;;;;5039773;28;20112;-79
2022/03/11 07:45:51;;;;;;;16.50;9.38;;;7.60;94.80;;;;;;5035969;28;20176;-87
2022/03/11 07:48:18;;;;;;;12.98;8.70;;;7.70;94.90;;;;;;5047493;28;20381;-82
2022/03/11 07:50:44;;;;;;;18.92;9.10;;;7.70;94.50;;;;;;5039939;28;20027;-80
2022/03/11 07:53:10;;;;;;;19.00;9.85;;;7.80;94.60;;;;;;5033638;28;20025;-82
2022/03/11 07:55:36;;;;;;;16.83;9.40;;;7.90;94.80;;;;;;5033453;28;20034;-80
2022/03/11 07:58:02;;;;;;;21.50;10.02;;;8.00;94.60;;;;;;5039229;28;20025;-79
2022/03/11 08:00:27;;;;;;;18.35;9.63;;;8.10;94.70;;;;;;5033654;28;20373;-79
2022/03/11 08:02:53;;;;;;;15.65;9.10;;;8.20;94.50;;;;;;5037844;28;20037;-81
2022/03/11 08:05:18;;;;;;;15.02;8.80;;;8.30;94.20;;;;;;5028100;28;20101;-81
2022/03/11 08:07:49;;;;;;;15.38;9.13;;;8.40;94.50;;;;;;5035018;28;20022;-86
2022/03/11 08:10:16;;;;;;;16.02;8.98;;;8.50;94.00;;;;;;5038681;28;20060;-80
2022/03/11 08:12:42;;;;;;;17.23;9.73;;;8.60;94.50;;;;;;5032124;28;20032;-82
2022/03/11 08:15:08;;;;;;;17.38;10.55;;;8.70;94.50;;;;;;5032521;28;20017;-81
2022/03/11 08:17:34;;;;;;;18.75;10.95;;;8.90;94.40;;;;;;5027528;28;20031;-87
2022/03/11 08:20:00;;;;;;;20.55;10.68;;;9.00;93.80;;;;;;5041539;28;20373;-86
2022/03/11 08:22:26;;;;;;;16.73;9.20;;;9.10;93.80;;;;;;5032223;28;20029;-81
2022/03/11 08:24:51;;;;;;;16.85;9.75;;;9.20;94.50;;;;;;5031561;28;20031;-85
2022/03/11 08:27:17;;;;;;;17.88;10.25;;;9.30;93.80;;;;;;5031412;28;20065;-84
2022/03/11 08:29:43;;;;;;;15.57;10.32;;;9.40;94.70;;;;;;5035276;28;20450;-85
2022/03/11 08:32:09;;;;;;;16.00;9.77;;;9.40;93.80;;;;;;5031552;28;20032;-85
2022/03/11 08:34:35;;;;;;;20.63;10.75;;;9.50;93.90;;;;;;5037047;28;20072;-85
2022/03/11 08:37:00;;;;;;;21.45;10.32;;;9.70;93.90;;;;;;5036792;28;20453;-83
2022/03/11 08:39:26;;;;;;;18.30;10.10;;;9.80;94.00;;;;;;5034896;28;20454;-86
2022/03/11 08:41:52;;;;;;;17.80;10.73;;;9.80;93.50;;;;;;5035787;28;20030;-87
2022/03/11 08:44:17;;;;;;;18.33;9.98;;;9.90;94.00;;;;;;5030982;28;20541;-86
2022/03/11 08:46:43;;;;;;;22.48;10.98;;;10.10;93.80;;;;;;5037560;28;20025;-88
2022/03/11 08:49:08;;;;;;;20.50;10.70;;;10.20;93.50;;;;;;5039230;28;20056;-84
2022/03/11 08:51:34;;;;;;;19.20;10.55;;;10.20;93.40;;;;;;5038366;28;20033;-88
2022/03/11 08:54:00;;;;;;;15.57;9.98;;;10.30;93.50;;;;;;5044299;28;20022;-86
2022/03/11 08:56:26;;;;;;;18.50;10.77;;;10.40;94.30;;;;;;5053320;28;20600;-87
2022/03/11 08:58:51;;;;;;;21.33;10.68;;;10.50;93.10;;;;;;5034155;28;20026;-88
2022/03/11 09:01:18;;;;;;;19.15;10.63;;;10.60;93.80;;;;;;5033574;28;20116;-86
2022/03/11 09:03:43;;;;;;;15.95;10.32;;;10.70;92.80;;;;;;5034750;28;20489;-85
2022/03/11 09:06:09;;;;;;;21.15;11.57;;;10.70;92.90;;;;;;5031563;28;20033;-84
2022/03/11 09:08:35;;;;;;;18.95;10.13;;;10.70;92.90;;;;;;5039146;28;20103;-83
2022/03/11 09:11:00;;;;;;;21.08;11.27;;;10.80;92.90;;;;;;5044420;28;20477;-85
2022/03/11 09:13:26;;;;;;;19.67;10.85;;;10.90;92.50;;;;;;5041769;28;20025;-86
2022/03/11 09:15:52;;;;;;;20.58;12.35;;;11.00;93.00;;;;;;5048083;28;20021;-86
2022/03/11 09:18:17;;;;;;;19.17;11.40;;;11.10;93.30;;;;;;5042812;28;20481;-83
2022/03/11 09:20:43;;;;;;;19.58;11.80;;;11.00;92.30;;;;;;5025563;28;20029;-88
2022/03/11 09:23:11;;;;;;;20.38;11.07;;;11.10;92.30;;;;;;5026475;28;20454;-83
2022/03/11 09:25:38;;;;;;;21.80;11.63;;;11.30;92.90;;;;;;5039068;28;20013;-87
2022/03/11 09:28:05;;;;;;;16.95;10.30;;;11.20;92.50;;;;;;5031851;28;20033;-86
2022/03/11 09:30:31;;;;;;;21.77;12.57;;;11.30;92.30;;;;;;5028123;28;20028;-88
2022/03/11 09:32:58;;;;;;;17.08;9.88;;;11.50;93.10;;;;;;5036635;28;20033;-82
2022/03/11 09:35:24;;;;;;;19.48;11.05;;;11.60;92.70;;;;;;5026325;28;20474;-86
2022/03/11 09:37:50;;;;;;;23.63;10.95;;;11.80;92.20;;;;;;5039570;28;20032;-86
2022/03/11 09:40:16;;;;;;;15.70;10.25;;;12.00;92.30;;;;;;5036926;28;20037;-87
2022/03/11 09:42:42;;;;;;;17.02;10.40;;;12.20;92.50;;;;;;5035831;28;20032;-85
2022/03/11 09:45:08;;;;;;;19.40;11.20;;;12.40;92.20;;;;;;5029649;28;20022;-81
2022/03/11 09:47:39;;;;;;;19.90;10.93;;;12.40;91.90;;;;;;5022585;28;20045;-81
2022/03/11 09:50:05;;;;;;;15.88;10.45;;;12.50;92.10;;;;;;5035979;28;20026;-83
2022/03/11 09:52:32;;;;;;;16.83;11.13;;;12.70;92.40;;;;;;5027569;28;20083;-84
2022/03/11 09:54:58;;;;;;;15.30;10.82;;;12.90;92.50;;;;;;5037913;28;20089;-86
2022/03/11 09:57:24;;;;;;;23.70;11.65;;;12.80;91.80;;;;;;5043115;28;20064;-88
2022/03/11 09:59:51;;;;;;;21.88;11.48;;;13.00;92.60;;;;;;5031342;28;20474;-85
2022/03/11 10:02:17;;;;;;;17.83;11.73;;;13.00;92.10;;;;;;5027027;28;20041;-80
2022/03/11 10:04:48;;;;;;;16.58;11.15;;;13.10;91.70;;;;;;5033927;28;20083;-85
2022/03/11 10:07:27;;;;;;;20.52;12.30;;;13.10;92.00;;;;;;5016775;28;20022;-83
2022/03/11 10:09:54;;;;;;;17.90;11.05;;;13.30;92.00;;;;;;5026629;28;20116;-87
2022/03/11 10:12:22;;;;;;;16.80;11.35;;;13.40;92.20;;;;;;5028859;28;20112;-81
2022/03/11 10:15:02;;;;;;;21.65;11.75;;;13.50;92.20;;;;;;5044522;28;20025;-86
2022/03/11 10:17:43;;;;;;;20.08;11.15;;;13.50;91.40;;;;;;5038185;28;20417;-83
2022/03/11 10:20:11;;;;;;;18.92;11.85;;;13.70;91.50;;;;;;5033847;28;20136;-83
2022/03/11 10:22:37;;;;;;;17.23;11.88;;;13.70;90.80;;;;;;5033404;28;20496;-84
2022/03/11 10:25:16;;;;;;;20.95;11.40;;;13.90;91.00;;;;;;5035847;28;20509;-82
2022/03/11 10:27:57;;;;;;;19.40;11.23;;;14.00;91.10;;;;;;5024224;28;20729;-83
2022/03/11 10:30:23;;;;;;;17.73;11.95;;;13.80;90.90;;;;;;5017838;28;20029;-83
2022/03/11 10:32:57;;;;;;;21.27;13.15;;;14.00;91.10;;;;;;5038654;28;20075;-82
2022/03/11 10:35:31;;;;;;;21.83;11.18;;;14.20;91.40;;;;;;5023802;28;20030;-82
2022/03/11 10:37:59;;;;;;;23.55;12.10;;;14.10;90.80;;;;;;5037253;28;20028;-80
2022/03/11 10:40:25;;;;;;;18.38;11.10;;;14.20;90.80;;;;;;5028714;28;20121;-81
2022/03/11 10:43:15;;;;;;;23.02;12.35;;;14.20;90.60;;;;;;5033576;28;20018;-84
2022/03/11 10:45:52;;;;;;;21.40;13.38;;;14.30;90.90;;;;;;5031703;28;20359;-82
2022/03/11 10:48:39;;;;;;;19.08;11.40;;;14.50;90.90;;;;;;5026725;28;20112;-83
2022/03/11 10:51:13;;;;;;;21.15;12.35;;;14.60;90.90;;;;;;5038885;28;20362;-80
2022/03/11 10:53:39;;;;;;;16.40;11.02;;;14.60;90.70;;;;;;5032405;28;20108;-78
2022/03/11 10:56:06;;;;;;;19.50;12.25;;;14.70;91.30;;;;;;5028905;28;20021;-79
2022/03/11 10:58:32;;;;;;;20.80;13.38;;;14.90;91.20;;;;;;5036831;28;20095;-79
2022/03/11 11:00:58;;;;;;;21.95;12.93;;;14.90;90.80;;;;;;5045065;28;20033;-79
2022/03/11 11:03:25;;;;;;;22.27;12.80;;;15.00;90.80;;;;;;5040954;28;20346;-78
2022/03/11 11:05:51;;;;;;;19.65;12.30;;;14.80;90.20;;;;;;5032938;28;20034;-78
2022/03/11 11:08:18;;;;;;;19.52;14.02;;;14.80;91.80;;;;;;5051112;28;20092;-77
2022/03/11 11:10:45;;;;;;;23.02;12.75;;;14.90;90.40;;;;;;5043701;28;20488;-78
2022/03/11 11:13:11;;;;;;;24.05;13.63;;;14.80;90.80;;;;;;5043146;28;20413;-79
2022/03/11 11:15:41;;;;;;;22.00;13.32;;;15.00;90.60;;;;;;5032001;28;20438;-78
2022/03/11 11:18:17;;;;;;;20.90;12.50;;;15.10;90.70;;;;;;5027543;28;20048;-80
2022/03/11 11:20:47;;;;;;;21.75;13.25;;;15.20;90.50;;;;;;5039983;28;20025;-81
2022/03/11 11:23:13;;;;;;;20.25;12.45;;;15.50;91.00;;;;;;5045147;28;20064;-82
2022/03/11 11:25:41;;;;;;;20.65;13.52;;;15.60;91.50;;;;;;5028008;28;20029;-81
2022/03/11 11:28:10;;;;;;;19.70;12.88;;;15.60;90.50;;;;;;5026370;28;20026;-80
2022/03/11 11:30:37;;;;;;;20.90;12.90;;;15.60;90.50;;;;;;5035084;28;20025;-77
2022/03/11 11:33:03;;;;;;;16.92;12.88;;;15.50;90.30;;;;;;5032674;28;20036;-80
2022/03/11 11:35:40;;;;;;;20.90;13.00;;;15.60;90.50;;;;;;5036102;28;20525;-77
2022/03/11 11:38:42;;;;;;;20.65;12.75;;;15.70;90.50;;;;;;5035608;28;20072;-77
2022/03/11 11:41:24;;;;;;;23.50;14.82;;;15.60;89.70;;;;;;5035110;28;20066;-77
2022/03/11 11:43:59;;;;;;;22.08;13.88;;;15.70;88.80;;;;;;5041498;28;20025;-78
2022/03/11 11:46:26;;;;;;;20.27;14.07;;;15.80;90.50;;;;;;5034384;28;20366;-78
2022/03/11 11:48:52;;;;;;;23.75;13.35;;;15.70;90.30;;;;;;5037026;28;20021;-79
2022/03/11 11:51:43;;;;;;;22.17;14.82;;;15.70;90.30;;;;;;5033230;28;20041;-78
2022/03/11 11:54:10;;;;;;;20.55;14.80;;;16.00;90.90;;;;;;5036288;28;20022;-77
2022/03/11 11:57:00;;;;;;;21.80;14.55;;;16.00;90.20;;;;;;5036667;28;20492;-77
2022/03/11 11:59:29;;;;;;;23.38;14.98;;;16.00;89.90;;;;;;5038992;28;20104;-76
2022/03/11 12:01:56;;;;;;;20.92;14.30;;;15.90;90.50;;;;;;5044207;28;20477;-77
2022/03/11 12:04:22;;;;;;;25.23;15.13;;;16.10;90.40;;;;;;5041254;28;20025;-77
2022/03/11 12:06:57;;;;;;;25.08;15.35;;;16.20;90.30;;;;;;5035657;28;20028;-76
2022/03/11 12:09:42;;;;;;;21.10;14.20;;;16.10;89.90;;;;;;5047134;28;20048;-77
2022/03/11 12:12:24;;;;;;;22.67;14.70;;;15.80;89.30;;;;;;5040249;28;20026;-77
2022/03/11 12:15:00;;;;;;;;;;;15.80;89.70;;;;;;5027735;28;20418;-75
2022/03/11 12:17:38;;;;;;;27.80;14.75;;;16.00;90.60;;;;;;5032572;28;20365;-77
2022/03/11 12:20:23;;;;;;;24.23;15.07;;;15.90;90.00;;;;;;5038986;28;20100;-77
2022/03/11 12:22:52;;;;;;;28.60;15.93;;;15.80;89.40;;;;;;5024224;28;20041;-76
2022/03/11 12:25:22;;;;;;;23.98;14.60;;;15.80;90.00;;;;;;5043582;28;20044;-76
2022/03/11 12:28:18;;;;;;;25.05;13.65;;;15.80;89.70;;;;;;5037110;28;20025;-76
2022/03/11 12:30:46;;;;;;;25.45;14.70;;;15.60;90.50;;;;;;5026769;28;20057;-77
2022/03/11 12:33:15;;;;;;;23.83;14.25;;;15.90;90.70;;;;;;5037128;28;20037;-76
2022/03/11 12:35:42;;;;;;;23.52;13.48;;;16.00;90.40;;;;;;5041716;28;20025;-77
2022/03/11 12:38:20;;;;;;;29.13;14.25;;;16.00;90.10;;;;;;5044655;28;20426;-78
2022/03/11 12:40:47;;;;;;;20.92;14.43;;;16.00;90.80;;;;;;5031540;28;20091;-77